Kathleen Dupre — WDI3806 — position and weather

sailwx.info

Track history (hours):
 
Tides and Currents Weather Stations Pressure Air Temp Water Temp Dewpoint Dewpoint Depression Visibility Wind Speed Wind Dir Waves Ship Positions

Kathleen Dupre

Owner: Dupre Marine Transportation, LCC, Houma, LA. More information available from US FCC via Universal Licensing System and Coast Guard Vessel Documentation Center.

Last reported at 2017-Sep-23 21:21 UTC. Time now 2017-Sep-23 23:41 UTC.
Position N 29°30' W 094°52'.

Length 14 m; draft 3 m.

Type: . MMSI: 367692120.

Date/timePositionNaut miles runAvg speedWind from/ knotsBaromVisibWave heightAir tempDewpointWater temp
2017-Sep-23 21:21N 29°30' W 094°52'2 6.5
2017-Sep-23 21:00N 29°31' W 094°53'3 6.5
2017-Sep-23 20:30N 29°34' W 094°55'3 6.6
2017-Sep-23 20:00N 29°37' W 094°57'  
2017-Sep-20 23:44N 29°46' W 095°06'1 4.4
2017-Sep-20 23:30N 29°46' W 095°05'0 0.4
2017-Sep-20 22:39N 29°46' W 095°05'1 4.3
2017-Sep-20 22:30N 29°45' W 095°04'3 3.8
2017-Sep-20 21:42N 29°44' W 095°01'0 0.1
2017-Sep-20 21:18N 29°44' W 095°01'0 0.0
2017-Sep-20 06:52N 29°44' W 095°01'0 0.2
2017-Sep-20 06:29N 29°44' W 095°01'0 0.0
2017-Sep-20 05:59N 29°44' W 095°01'0 0.0
2017-Sep-20 05:26N 29°44' W 095°01'0 0.0
2017-Sep-20 04:59N 29°44' W 095°01'0 0.2
2017-Sep-20 04:02N 29°44' W 095°01'0 3.4
2017-Sep-20 03:59N 29°44' W 095°02'3 5.3
2017-Sep-20 03:23N 29°46' W 095°04'0 0.2
2017-Sep-20 01:18N 29°46' W 095°05'1 0.0
2017-Sep-18 20:39N 29°46' W 095°06'0 0.8
2017-Sep-18 20:26N 29°46' W 095°06'1 0.1
2017-Sep-18 16:36N 29°45' W 095°06'1 4.6
2017-Sep-18 16:29N 29°46' W 095°05'0 0.0
2017-Sep-17 02:50N 29°46' W 095°05'0 0.2
2017-Sep-17 00:32N 29°45' W 095°06'0 0.2
2017-Sep-17 00:29N 29°45' W 095°06'0 0.2
2017-Sep-17 00:00N 29°45' W 095°06'0 0.0
2017-Sep-15 23:56N 29°46' W 095°05'2 1.4
2017-Sep-15 22:44N 29°47' W 095°04'1 3.9
2017-Sep-15 22:21N 29°46' W 095°05'0 0.5
2017-Sep-15 21:30N 29°46' W 095°06'2 2.8
2017-Sep-15 20:52N 29°47' W 095°04'0 0.0
2017-Sep-15 20:28N 29°47' W 095°04'0 0.0
2017-Sep-15 19:46N 29°47' W 095°04'0 0.0
2017-Sep-15 19:19N 29°47' W 095°04'0 0.0
2017-Sep-15 18:55N 29°47' W 095°04'1 2.1
2017-Sep-15 18:27N 29°46' W 095°05'1 0.5
2017-Sep-15 16:48N 29°46' W 095°05'1 1.2
2017-Sep-15 15:47N 29°47' W 095°05'0 0.0
2017-Sep-15 13:57N 29°47' W 095°05'0 0.0
2017-Sep-15 13:30N 29°47' W 095°05'0 0.0
2017-Sep-15 13:00N 29°47' W 095°05'1 0.5
2017-Sep-15 10:17N 29°46' W 095°06'1 4.4
2017-Sep-15 09:59N 29°47' W 095°04'1 0.9
2017-Sep-15 09:27N 29°47' W 095°04'0 0.8
2017-Sep-15 08:54N 29°47' W 095°04'0 0.4
2017-Sep-15 08:30N 29°47' W 095°04'1 0.8
2017-Sep-15 06:56N 29°46' W 095°05'1 2.3
2017-Sep-15 06:25N 29°47' W 095°05'0 0.0
2017-Sep-15 05:38N 29°47' W 095°05'0 0.0
2017-Sep-15 05:27N 29°47' W 095°05'0 0.0
2017-Sep-15 05:00N 29°47' W 095°05'0 0.0
2017-Sep-15 04:30N 29°47' W 095°05'0 0.0
2017-Sep-15 03:57N 29°47' W 095°05'0 0.0
2017-Sep-15 03:29N 29°47' W 095°05'0 0.1
2017-Sep-15 03:00N 29°47' W 095°05'0 0.1
2017-Sep-15 02:29N 29°47' W 095°05'0 0.0
2017-Sep-14 23:51N 29°47' W 095°05'0 0.0
2017-Sep-14 21:02N 29°47' W 095°05'1 4.8
2017-Sep-14 20:49N 29°46' W 095°05'1 1.7
2017-Sep-14 20:13N 29°47' W 095°05'0 0.1
2017-Sep-14 19:58N 29°47' W 095°05'0 0.0
2017-Sep-14 19:29N 29°47' W 095°05'0 0.0
2017-Sep-14 19:00N 29°47' W 095°05'0 0.0
2017-Sep-14 18:28N 29°47' W 095°05'0 0.0
2017-Sep-14 18:00N 29°47' W 095°05'1 1.4
2017-Sep-14 17:12N 29°46' W 095°05'2 6.5
2017-Sep-14 16:54N 29°44' W 095°07'3 5.8
2017-Sep-14 16:25N 29°45' W 095°10'4 4.9
2017-Sep-14 15:39N 29°43' W 095°14'0 0.0
2017-Sep-14 13:34N 29°44' W 095°14'0 0.1
2017-Sep-14 13:29N 29°44' W 095°14'0 0.0
2017-Sep-14 12:56N 29°44' W 095°14'0 0.0
2017-Sep-14 12:23N 29°44' W 095°14'0 0.0
2017-Sep-14 10:49N 29°44' W 095°14'0 0.0
2017-Sep-14 10:15N 29°44' W 095°14'0 0.0
2017-Sep-14 09:52N 29°44' W 095°14'0 0.0
2017-Sep-14 09:29N 29°44' W 095°14'0 0.0
2017-Sep-14 09:00N 29°44' W 095°14'0 0.0
2017-Sep-14 08:29N 29°44' W 095°14'0 0.0
2017-Sep-14 07:52N 29°44' W 095°14'0 0.0
2017-Sep-13 22:21N 29°44' W 095°14'0 0.1
2017-Sep-13 21:57N 29°43' W 095°14'3 5.1
2017-Sep-13 21:28N 29°45' W 095°11'  
Track history (hours):
 
Tides and Currents Weather Stations Pressure Air Temp Water Temp Dewpoint Dewpoint Depression Visibility Wind Speed Wind Dir Waves Ship Positions

Kathleen Dupre

Owner: Dupre Marine Transportation, LCC, Houma, LA. More information available from US FCC via Universal Licensing System and Coast Guard Vessel Documentation Center.

Last reported at 2017-Sep-23 21:21 UTC. Time now 2017-Sep-23 23:41 UTC.
Position N 29°30' W 094°52'.

Length 14 m; draft 3 m.

Type: . MMSI: 367692120.

Date/timePositionNaut miles runAvg speedWind from/ knotsBaromVisibWave heightAir tempDewpointWater temp
2017-Sep-23 21:21N 29°30' W 094°52'2 6.5
2017-Sep-23 21:00N 29°31' W 094°53'3 6.5
2017-Sep-23 20:30N 29°34' W 094°55'3 6.6
2017-Sep-23 20:00N 29°37' W 094°57'  
2017-Sep-20 23:44N 29°46' W 095°06'1 4.4
2017-Sep-20 23:30N 29°46' W 095°05'0 0.4
2017-Sep-20 22:39N 29°46' W 095°05'1 4.3
2017-Sep-20 22:30N 29°45' W 095°04'3 3.8
2017-Sep-20 21:42N 29°44' W 095°01'0 0.1
2017-Sep-20 21:18N 29°44' W 095°01'0 0.0
2017-Sep-20 06:52N 29°44' W 095°01'0 0.2
2017-Sep-20 06:29N 29°44' W 095°01'0 0.0
2017-Sep-20 05:59N 29°44' W 095°01'0 0.0
2017-Sep-20 05:26N 29°44' W 095°01'0 0.0
2017-Sep-20 04:59N 29°44' W 095°01'0 0.2
2017-Sep-20 04:02N 29°44' W 095°01'0 3.4
2017-Sep-20 03:59N 29°44' W 095°02'3 5.3
2017-Sep-20 03:23N 29°46' W 095°04'0 0.2
2017-Sep-20 01:18N 29°46' W 095°05'1 0.0
2017-Sep-18 20:39N 29°46' W 095°06'0 0.8
2017-Sep-18 20:26N 29°46' W 095°06'1 0.1
2017-Sep-18 16:36N 29°45' W 095°06'1 4.6
2017-Sep-18 16:29N 29°46' W 095°05'0 0.0
2017-Sep-17 02:50N 29°46' W 095°05'0 0.2
2017-Sep-17 00:32N 29°45' W 095°06'0 0.2
2017-Sep-17 00:29N 29°45' W 095°06'0 0.2
2017-Sep-17 00:00N 29°45' W 095°06'0 0.0
2017-Sep-15 23:56N 29°46' W 095°05'2 1.4
2017-Sep-15 22:44N 29°47' W 095°04'1 3.9
2017-Sep-15 22:21N 29°46' W 095°05'0 0.5
2017-Sep-15 21:30N 29°46' W 095°06'2 2.8
2017-Sep-15 20:52N 29°47' W 095°04'0 0.0
2017-Sep-15 20:28N 29°47' W 095°04'0 0.0
2017-Sep-15 19:46N 29°47' W 095°04'0 0.0
2017-Sep-15 19:19N 29°47' W 095°04'0 0.0
2017-Sep-15 18:55N 29°47' W 095°04'1 2.1
2017-Sep-15 18:27N 29°46' W 095°05'1 0.5
2017-Sep-15 16:48N 29°46' W 095°05'1 1.2
2017-Sep-15 15:47N 29°47' W 095°05'0 0.0
2017-Sep-15 13:57N 29°47' W 095°05'0 0.0
2017-Sep-15 13:30N 29°47' W 095°05'0 0.0
2017-Sep-15 13:00N 29°47' W 095°05'1 0.5
2017-Sep-15 10:17N 29°46' W 095°06'1 4.4
2017-Sep-15 09:59N 29°47' W 095°04'1 0.9
2017-Sep-15 09:27N 29°47' W 095°04'0 0.8
2017-Sep-15 08:54N 29°47' W 095°04'0 0.4
2017-Sep-15 08:30N 29°47' W 095°04'1 0.8
2017-Sep-15 06:56N 29°46' W 095°05'1 2.3
2017-Sep-15 06:25N 29°47' W 095°05'0 0.0
2017-Sep-15 05:38N 29°47' W 095°05'0 0.0
2017-Sep-15 05:27N 29°47' W 095°05'0 0.0
2017-Sep-15 05:00N 29°47' W 095°05'0 0.0
2017-Sep-15 04:30N 29°47' W 095°05'0 0.0
2017-Sep-15 03:57N 29°47' W 095°05'0 0.0
2017-Sep-15 03:29N 29°47' W 095°05'0 0.1
2017-Sep-15 03:00N 29°47' W 095°05'0 0.1
2017-Sep-15 02:29N 29°47' W 095°05'0 0.0
2017-Sep-14 23:51N 29°47' W 095°05'0 0.0
2017-Sep-14 21:02N 29°47' W 095°05'1 4.8
2017-Sep-14 20:49N 29°46' W 095°05'1 1.7
2017-Sep-14 20:13N 29°47' W 095°05'0 0.1
2017-Sep-14 19:58N 29°47' W 095°05'0 0.0
2017-Sep-14 19:29N 29°47' W 095°05'0 0.0
2017-Sep-14 19:00N 29°47' W 095°05'0 0.0
2017-Sep-14 18:28N 29°47' W 095°05'0 0.0
2017-Sep-14 18:00N 29°47' W 095°05'1 1.4
2017-Sep-14 17:12N 29°46' W 095°05'2 6.5
2017-Sep-14 16:54N 29°44' W 095°07'3 5.8
2017-Sep-14 16:25N 29°45' W 095°10'4 4.9
2017-Sep-14 15:39N 29°43' W 095°14'0 0.0
2017-Sep-14 13:34N 29°44' W 095°14'0 0.1
2017-Sep-14 13:29N 29°44' W 095°14'0 0.0
2017-Sep-14 12:56N 29°44' W 095°14'0 0.0
2017-Sep-14 12:23N 29°44' W 095°14'0 0.0
2017-Sep-14 10:49N 29°44' W 095°14'0 0.0
2017-Sep-14 10:15N 29°44' W 095°14'0 0.0
2017-Sep-14 09:52N 29°44' W 095°14'0 0.0
2017-Sep-14 09:29N 29°44' W 095°14'0 0.0
2017-Sep-14 09:00N 29°44' W 095°14'0 0.0
2017-Sep-14 08:29N 29°44' W 095°14'0 0.0
2017-Sep-14 07:52N 29°44' W 095°14'0 0.0
2017-Sep-13 22:21N 29°44' W 095°14'0 0.1
2017-Sep-13 21:57N 29°43' W 095°14'3 5.1
2017-Sep-13 21:28N 29°45' W 095°11'  

Dump ship's entire track history